Terminal Aerodrome Forecast
Issued by NWS

Home | Current Version | Previous Version | Text Only | Print | Product List | Glossary Off
Versions: 1 2 3 4 5 6 7 8 9 10 11 12 13 14 15 16 17 18 19 20

000
FTUS43 KBIS 271734
TAFMOT
TAF
KMOT 271734Z 2718/2818 11014G24KT P6SM SCT100
     FM280200 11020KT P6SM VCTS BKN080CB
     FM280500 13014KT 5SM SHRA VCTS BKN040CB
     FM280900 22018G25KT P6SM VCSH BKN035
     FM281600 23025G40KT P6SM SCT100=

USA.gov is the U.S. government's official web portal to all federal, state and local government web resources and services.